createdAt,value
2018-06-04T00:01:52.804Z,39.30
2018-06-04T00:04:20.369Z,32.27
2018-06-04T00:06:47.658Z,32.13
2018-06-04T00:09:14.964Z,33.83
2018-06-04T00:11:42.243Z,36.33
2018-06-04T00:14:09.516Z,33.07
2018-06-04T00:16:36.806Z,34.90
2018-06-04T00:19:04.097Z,33.67
2018-06-04T00:21:32.324Z,32.03
2018-06-04T00:23:59.637Z,31.13
2018-06-04T00:26:26.925Z,30.40
2018-06-04T00:28:54.197Z,30.27
2018-06-04T00:31:21.504Z,33.53
2018-06-04T00:33:48.767Z,33.67
2018-06-04T00:36:16.051Z,32.37
2018-06-04T00:38:43.353Z,33.60
2018-06-04T00:41:10.629Z,29.60
2018-06-04T00:43:37.913Z,29.07
2018-06-04T00:46:05.394Z,25.50
2018-06-04T00:48:32.685Z,25.33
2018-06-04T00:50:59.992Z,25.27
2018-06-04T00:53:27.254Z,27.47
2018-06-04T00:56:00.462Z,25.13
2018-06-04T00:58:27.726Z,26.10
2018-06-04T01:00:55.018Z,25.80
2018-06-04T01:03:22.281Z,25.60
2018-06-04T01:05:49.618Z,22.97
2018-06-04T01:08:16.913Z,27.23
2018-06-04T01:10:44.193Z,23.93
2018-06-04T01:13:11.477Z,26.27
2018-06-04T01:15:38.745Z,27.83
2018-06-04T01:18:06.002Z,25.53
2018-06-04T01:20:33.262Z,24.63
2018-06-04T01:23:00.533Z,24.93
2018-06-04T01:25:27.799Z,30.10
2018-06-04T01:27:55.057Z,23.43
2018-06-04T01:30:22.337Z,25.70
2018-06-04T01:32:49.621Z,31.30
2018-06-04T01:35:16.923Z,22.20
2018-06-04T01:37:44.205Z,24.37
2018-06-04T01:40:11.513Z,23.97
2018-06-04T01:42:38.769Z,25.50
2018-06-04T01:45:06.045Z,23.33
2018-06-04T01:47:33.552Z,23.33
2018-06-04T01:50:00.862Z,26.70
2018-06-04T01:52:28.146Z,30.17
2018-06-04T01:54:55.405Z,28.67
2018-06-04T01:57:22.730Z,29.63
2018-06-04T01:59:49.993Z,29.30
2018-06-04T02:02:17.273Z,32.80
2018-06-04T02:04:44.538Z,35.30
2018-06-04T02:07:11.829Z,32.47
2018-06-04T02:09:39.089Z,34.00
2018-06-04T02:12:06.349Z,31.03
2018-06-04T02:14:33.601Z,32.77
2018-06-04T02:17:00.881Z,36.20
2018-06-04T02:19:28.173Z,36.37
2018-06-04T02:21:55.469Z,36.87
2018-06-04T02:24:22.745Z,33.77
2018-06-04T02:26:50.022Z,33.97
2018-06-04T02:29:17.319Z,37.27
2018-06-04T02:31:44.601Z,34.20
2018-06-04T02:34:11.866Z,32.77
2018-06-04T02:36:39.137Z,35.13
2018-06-04T02:39:06.431Z,35.80
2018-06-04T02:41:33.713Z,33.93
2018-06-04T02:44:01.005Z,40.73
2018-06-04T02:46:28.293Z,40.03
2018-06-04T02:48:55.825Z,38.07
2018-06-04T02:51:23.112Z,34.90
2018-06-04T02:53:50.381Z,37.93
2018-06-04T02:56:17.654Z,33.90
2018-06-04T02:58:44.914Z,40.27
2018-06-04T03:01:12.213Z,36.67
2018-06-04T03:03:39.489Z,37.00
2018-06-04T03:06:06.758Z,41.30
2018-06-04T03:08:34.025Z,37.80
2018-06-04T03:11:01.282Z,44.53
2018-06-04T03:13:28.547Z,41.23
2018-06-04T03:15:55.843Z,50.83
2018-06-04T03:18:23.112Z,51.40
2018-06-04T03:20:50.529Z,51.23
2018-06-04T03:23:17.801Z,56.40
2018-06-04T03:25:45.073Z,52.57
2018-06-04T03:28:12.331Z,52.07
2018-06-04T03:30:39.605Z,61.90
2018-06-04T03:33:06.862Z,60.40
2018-06-04T03:35:34.158Z,60.13
2018-06-04T03:38:01.421Z,50.97
2018-06-04T03:40:28.685Z,58.93
2018-06-04T03:42:56.019Z,49.87
2018-06-04T03:45:23.288Z,59.53
2018-06-04T03:47:50.575Z,49.43
2018-06-04T03:50:18.103Z,52.43
2018-06-04T03:52:45.382Z,50.70
2018-06-04T03:55:12.709Z,55.77
2018-06-04T03:57:39.985Z,55.80
2018-06-04T04:00:07.277Z,59.10
2018-06-04T04:02:34.541Z,50.60
2018-06-04T04:05:01.813Z,54.30
2018-06-04T04:07:29.086Z,52.83
2018-06-04T04:09:56.393Z,55.57
2018-06-04T04:12:23.650Z,49.60
2018-06-04T04:14:50.965Z,52.50
2018-06-04T04:17:18.238Z,51.30
2018-06-04T04:19:45.507Z,48.00
2018-06-04T04:22:12.805Z,51.97
2018-06-04T04:24:40.064Z,51.30
2018-06-04T04:27:07.339Z,46.30
2018-06-04T04:29:34.610Z,50.80
2018-06-04T04:32:01.892Z,47.20
2018-06-04T04:34:29.173Z,47.10
2018-06-04T04:36:56.450Z,41.30
2018-06-04T04:39:23.752Z,42.83
2018-06-04T04:41:51.023Z,46.83
2018-06-04T04:44:18.318Z,41.83
2018-06-04T04:46:45.635Z,46.80
2018-06-04T04:49:12.902Z,39.13
2018-06-04T04:51:40.373Z,44.20
2018-06-04T04:54:07.652Z,44.30
2018-06-04T04:56:34.921Z,44.70
2018-06-04T04:59:02.222Z,45.43
2018-06-04T05:01:29.497Z,48.47
2018-06-04T05:03:56.838Z,42.60
2018-06-04T05:06:24.129Z,46.00
2018-06-04T05:08:51.393Z,45.83
2018-06-04T05:11:18.681Z,51.50
2018-06-04T05:13:45.949Z,48.00
2018-06-04T05:16:13.246Z,45.53
2018-06-04T05:18:40.513Z,45.23
2018-06-04T05:21:07.814Z,42.37
2018-06-04T05:23:35.083Z,43.33
2018-06-04T05:26:02.483Z,43.57
2018-06-04T05:28:29.751Z,44.57
2018-06-04T05:30:57.042Z,44.43
2018-06-04T05:33:24.309Z,47.70
2018-06-04T05:35:51.606Z,48.63
2018-06-04T05:38:18.891Z,52.20
2018-06-04T05:40:46.158Z,48.87
2018-06-04T05:43:13.417Z,51.40
2018-06-04T05:45:40.676Z,47.30
2018-06-04T05:48:08.021Z,50.30
2018-06-04T05:50:35.339Z,44.23
2018-06-04T05:53:02.880Z,52.87
2018-06-04T05:55:30.163Z,60.67
2018-06-04T05:57:57.462Z,53.17
2018-06-04T06:00:24.739Z,41.43
2018-06-04T06:02:52.005Z,40.57
2018-06-04T06:05:19.294Z,48.53
2018-06-04T06:07:46.553Z,46.60
2018-06-04T06:10:13.849Z,41.70
2018-06-04T06:12:41.116Z,38.07
2018-06-04T06:15:08.388Z,42.67
2018-06-04T06:17:35.662Z,38.60
2018-06-04T06:20:02.978Z,37.13
2018-06-04T06:22:30.317Z,32.10
2018-06-04T06:24:57.588Z,32.93
2018-06-04T06:27:24.845Z,28.83
2018-06-04T06:29:52.108Z,29.00
2018-06-04T06:32:19.378Z,36.07
2018-06-04T06:34:46.641Z,29.63
2018-06-04T06:37:13.941Z,24.40
2018-06-04T06:39:41.248Z,31.37
2018-06-04T06:42:08.509Z,35.23
2018-06-04T06:44:35.810Z,35.43
2018-06-04T06:47:03.074Z,34.07
2018-06-04T06:49:30.355Z,32.13
2018-06-04T06:51:57.653Z,33.20
2018-06-04T06:54:25.245Z,33.30
2018-06-04T06:56:52.496Z,35.93
2018-06-04T06:59:19.766Z,43.93
2018-06-04T07:01:47.074Z,40.30
2018-06-04T07:04:14.369Z,42.37
2018-06-04T07:06:41.649Z,45.23
2018-06-04T07:09:08.933Z,38.43
2018-06-04T07:11:36.208Z,39.17
2018-06-04T07:14:03.523Z,44.37
2018-06-04T07:16:30.817Z,42.60
2018-06-04T07:18:58.102Z,41.97
2018-06-04T07:21:25.394Z,40.60
2018-06-04T07:23:52.630Z,41.13
2018-06-04T07:26:19.887Z,47.70
2018-06-04T07:28:47.162Z,42.27
2018-06-04T07:31:14.450Z,43.97
2018-06-04T07:33:41.730Z,44.90
2018-06-04T07:36:09.513Z,42.07
2018-06-04T07:38:36.917Z,37.80
2018-06-04T07:41:04.213Z,46.00
2018-06-04T07:43:31.486Z,40.33
2018-06-04T07:45:58.769Z,34.30
2018-06-04T07:48:26.026Z,33.97
2018-06-04T07:50:53.326Z,34.87
2018-06-04T07:53:20.626Z,36.63
2018-06-04T07:55:48.086Z,29.17
2018-06-04T07:58:15.377Z,36.00
2018-06-04T08:00:42.731Z,32.63
2018-06-04T08:03:09.965Z,28.13
2018-06-04T08:05:37.237Z,26.23
2018-06-04T08:08:04.544Z,26.37
2018-06-04T08:10:31.823Z,24.20
2018-06-04T08:12:59.109Z,24.10
2018-06-04T08:15:26.389Z,21.17
2018-06-04T08:17:53.703Z,19.70
2018-06-04T08:20:20.985Z,22.23
2018-06-04T08:22:48.297Z,21.20
2018-06-04T08:25:15.571Z,20.03
2018-06-04T08:27:42.865Z,21.87
2018-06-04T08:30:10.125Z,18.27
2018-06-04T08:32:37.441Z,19.90
2018-06-04T08:35:04.729Z,17.70
2018-06-04T08:37:31.989Z,17.50
2018-06-04T08:39:59.281Z,16.77
2018-06-04T08:42:26.606Z,20.20
2018-06-04T08:44:53.886Z,18.27
2018-06-04T08:47:21.173Z,14.57
2018-06-04T08:49:48.425Z,13.50
2018-06-04T08:52:15.707Z,14.20
2018-06-04T08:54:42.973Z,14.30
2018-06-04T08:57:10.462Z,13.87
2018-06-04T08:59:37.721Z,14.77
2018-06-04T09:02:05.218Z,16.07
2018-06-04T09:04:32.487Z,19.40
2018-06-04T09:06:59.773Z,24.43
2018-06-04T09:09:27.093Z,18.00
2018-06-04T09:11:54.374Z,12.80
2018-06-04T09:14:21.646Z,12.07
2018-06-04T09:16:48.918Z,14.63
2018-06-04T09:19:16.212Z,12.40
2018-06-04T09:21:43.506Z,12.80
2018-06-04T09:24:10.986Z,13.93
2018-06-04T09:26:38.253Z,11.97
2018-06-04T09:29:05.532Z,14.30
2018-06-04T09:31:32.799Z,11.30
2018-06-04T09:34:00.085Z,14.47
2018-06-04T09:36:27.341Z,10.60
2018-06-04T09:38:54.649Z,11.67
2018-06-04T09:41:21.945Z,11.57
2018-06-04T09:43:49.217Z,10.97
2018-06-04T09:46:16.496Z,12.13
2018-06-04T09:48:43.769Z,11.57
2018-06-04T09:51:11.417Z,11.57
2018-06-04T09:53:38.709Z,19.20
2018-06-04T09:56:05.975Z,14.43
2018-06-04T09:58:33.432Z,10.67
2018-06-04T10:01:00.709Z,11.47
2018-06-04T10:03:27.980Z,11.03
2018-06-04T10:05:55.241Z,10.00
2018-06-04T10:08:22.548Z,13.03
2018-06-04T10:10:49.813Z,14.63
2018-06-04T10:13:17.103Z,18.13
2018-06-04T10:15:44.398Z,14.60
2018-06-04T10:18:11.710Z,12.87
2018-06-04T10:20:38.985Z,16.77
2018-06-04T10:23:06.327Z,16.10
2018-06-04T10:25:33.586Z,14.43
2018-06-04T10:28:00.862Z,16.00
2018-06-04T10:30:28.152Z,14.70
2018-06-04T10:32:55.422Z,15.20
2018-06-04T10:35:22.718Z,13.17
2018-06-04T10:37:50.010Z,15.67
2018-06-04T10:40:17.311Z,15.63
2018-06-04T10:42:44.633Z,15.47
2018-06-04T10:45:11.950Z,18.60
2018-06-04T10:47:40.394Z,18.30
2018-06-04T10:50:07.741Z,22.13
2018-06-04T10:52:35.051Z,19.37
2018-06-04T10:55:02.344Z,20.10
2018-06-04T10:57:29.625Z,19.80
2018-06-04T10:59:57.275Z,21.00
2018-06-04T11:02:24.537Z,19.97
2018-06-04T11:04:51.872Z,21.57
2018-06-04T11:07:19.090Z,23.30
2018-06-04T11:09:46.376Z,22.37
2018-06-04T11:12:13.648Z,20.97
2018-06-04T11:14:40.921Z,20.90
2018-06-04T11:17:08.210Z,24.43
2018-06-04T11:19:35.497Z,23.30
2018-06-04T11:22:02.796Z,24.80
2018-06-04T11:24:30.082Z,24.20
2018-06-04T11:26:57.349Z,22.00
2018-06-04T11:29:24.637Z,24.87
2018-06-04T11:31:51.929Z,30.73
2018-06-04T11:34:19.273Z,24.93
2018-06-04T11:36:46.586Z,20.37
2018-06-04T11:39:13.921Z,24.30
2018-06-04T11:41:41.213Z,25.87
2018-06-04T11:44:08.504Z,22.23
2018-06-04T11:46:35.780Z,22.63
2018-06-04T11:49:03.078Z,22.87
2018-06-04T11:51:30.424Z,19.30
2018-06-04T11:53:57.725Z,24.53
2018-06-04T11:56:25.039Z,20.00
2018-06-04T11:58:52.289Z,21.80
2018-06-04T12:01:19.717Z,20.93
2018-06-04T12:03:46.978Z,16.53
2018-06-04T12:06:14.364Z,22.83
2018-06-04T12:08:41.685Z,15.33
2018-06-04T12:11:09.002Z,17.93
2018-06-04T12:13:36.324Z,20.83
2018-06-04T12:16:03.597Z,16.30
2018-06-04T12:18:30.889Z,20.00
2018-06-04T12:20:58.176Z,18.73
2018-06-04T12:23:25.452Z,21.53
2018-06-04T12:25:52.791Z,14.03
2018-06-04T12:28:20.091Z,13.50
2018-06-04T12:30:47.417Z,15.17
2018-06-04T12:33:14.676Z,12.40
2018-06-04T12:35:42.003Z,13.80
2018-06-04T12:38:09.301Z,13.37
2018-06-04T12:40:36.592Z,12.50
2018-06-04T12:43:03.916Z,13.40
2018-06-04T12:45:31.224Z,10.80
2018-06-04T12:47:58.502Z,10.60
2018-06-04T12:50:25.976Z,10.87
2018-06-04T12:52:53.254Z,14.03
2018-06-04T12:55:20.573Z,11.23
2018-06-04T12:57:47.851Z,11.40
2018-06-04T13:00:15.154Z,9.90
2018-06-04T13:02:42.640Z,9.57
2018-06-04T13:05:09.929Z,9.60
2018-06-04T13:07:37.242Z,7.67
2018-06-04T13:10:04.534Z,8.93
2018-06-04T13:12:31.849Z,8.77
2018-06-04T13:14:59.121Z,8.97
2018-06-04T13:17:26.428Z,8.97
2018-06-04T13:19:53.728Z,11.40
2018-06-04T13:22:21.030Z,9.70
2018-06-04T13:24:48.308Z,10.77
2018-06-04T13:27:15.607Z,8.37
2018-06-04T13:29:42.869Z,12.00
2018-06-04T13:32:10.176Z,12.40
2018-06-04T13:34:37.453Z,11.93
2018-06-04T13:37:04.733Z,12.97
2018-06-04T13:39:32.046Z,10.40
2018-06-04T13:41:59.272Z,11.07
2018-06-04T13:44:26.625Z,9.90
2018-06-04T13:46:53.925Z,10.63
2018-06-04T13:49:21.215Z,12.63
2018-06-04T13:51:48.531Z,11.27
2018-06-04T13:54:15.828Z,12.47
2018-06-04T13:56:43.955Z,13.53
2018-06-04T13:59:11.269Z,15.50
2018-06-04T14:01:38.543Z,12.63
2018-06-04T14:04:05.988Z,12.83
2018-06-04T14:06:33.273Z,11.73
2018-06-04T14:09:00.545Z,16.80
2018-06-04T14:11:27.860Z,20.87
2018-06-04T14:13:55.116Z,16.60
2018-06-04T14:16:22.429Z,18.40
2018-06-04T14:18:49.734Z,18.80
2018-06-04T14:21:17.009Z,17.80
2018-06-04T14:23:44.292Z,19.43
2018-06-04T14:26:11.569Z,21.57
2018-06-04T14:28:38.865Z,17.17
2018-06-04T14:31:06.257Z,16.97
2018-06-04T14:33:33.552Z,16.10
2018-06-04T14:36:00.833Z,16.87
2018-06-04T14:38:28.117Z,17.83
2018-06-04T14:40:55.449Z,18.50
2018-06-04T14:43:22.727Z,17.50
2018-06-04T14:45:50.425Z,15.80
2018-06-04T14:48:17.707Z,17.80
2018-06-04T14:50:44.977Z,18.90
2018-06-04T14:53:12.248Z,23.30
2018-06-04T14:55:39.569Z,16.40
2018-06-04T14:58:06.849Z,17.30
2018-06-04T15:00:34.120Z,16.40
2018-06-04T15:03:01.428Z,15.90
2018-06-04T15:05:28.992Z,13.93
2018-06-04T15:07:56.280Z,16.00
2018-06-04T15:10:23.542Z,14.80
2018-06-04T15:12:50.871Z,13.30
2018-06-04T15:15:18.224Z,11.47
2018-06-04T15:17:45.445Z,14.63
2018-06-04T15:20:12.793Z,17.30
2018-06-04T15:22:40.096Z,14.13
2018-06-04T15:25:07.383Z,21.43
2018-06-04T15:27:34.692Z,21.20
2018-06-04T15:30:01.983Z,15.33
2018-06-04T15:32:29.279Z,15.67
2018-06-04T15:34:56.557Z,15.07
2018-06-04T15:37:23.836Z,17.10
2018-06-04T15:39:51.121Z,15.50
2018-06-04T15:42:18.381Z,17.83
2018-06-04T15:44:45.641Z,20.13
2018-06-04T15:47:12.964Z,21.80
2018-06-04T15:49:40.228Z,18.90
2018-06-04T15:52:07.553Z,20.40
2018-06-04T15:54:34.872Z,21.13
2018-06-04T15:57:02.141Z,19.53
2018-06-04T15:59:29.411Z,19.70
2018-06-04T16:01:56.697Z,21.67
2018-06-04T16:04:23.970Z,23.10
2018-06-04T16:06:51.444Z,22.60
2018-06-04T16:09:18.703Z,24.33
2018-06-04T16:11:45.979Z,27.40
2018-06-04T16:14:13.272Z,27.07
2018-06-04T16:16:40.533Z,31.23
2018-06-04T16:19:07.809Z,27.30
2018-06-04T16:21:35.081Z,23.60
2018-06-04T16:24:02.409Z,27.13
2018-06-04T16:26:29.684Z,22.37
2018-06-04T16:28:56.973Z,25.60
2018-06-04T16:31:24.308Z,26.20
2018-06-04T16:33:51.540Z,27.70
2018-06-04T16:36:18.829Z,27.27
2018-06-04T16:38:46.157Z,25.93
2018-06-04T16:41:13.498Z,25.00
2018-06-04T16:43:40.782Z,27.83
2018-06-04T16:46:08.058Z,23.33
2018-06-04T16:48:35.341Z,21.27
2018-06-04T16:51:02.627Z,24.37
2018-06-04T16:53:29.920Z,26.13
2018-06-04T16:55:57.205Z,34.40
2018-06-04T16:58:24.477Z,42.03
2018-06-04T17:00:51.786Z,126.10
2018-06-04T17:03:19.061Z,80.23
2018-06-04T17:05:46.324Z,34.13
2018-06-04T17:08:13.825Z,42.80
2018-06-04T17:10:41.129Z,42.03
2018-06-04T17:13:08.501Z,30.60
2018-06-04T17:15:35.782Z,32.13
2018-06-04T17:18:03.072Z,24.93
2018-06-04T17:20:30.389Z,18.50
2018-06-04T17:22:57.671Z,29.93
2018-06-04T17:25:24.925Z,16.30
2018-06-04T17:27:52.224Z,14.87
2018-06-04T17:30:19.500Z,16.03
2018-06-04T17:32:46.801Z,17.97
2018-06-04T17:35:14.073Z,14.40
2018-06-04T17:37:41.371Z,20.50
2018-06-04T17:40:08.664Z,17.80
2018-06-04T17:42:35.941Z,17.37
2018-06-04T17:45:03.289Z,18.80
2018-06-04T17:47:30.543Z,25.07
2018-06-04T17:49:57.877Z,17.57
2018-06-04T17:52:25.151Z,18.63
2018-06-04T17:54:52.419Z,21.03
2018-06-04T17:57:19.696Z,21.03
2018-06-04T17:59:46.956Z,15.97
2018-06-04T18:02:14.213Z,19.80
2018-06-04T18:04:41.549Z,16.60
2018-06-04T18:07:08.817Z,15.10
2018-06-04T18:09:36.264Z,13.40
2018-06-04T18:12:03.559Z,16.90
2018-06-04T18:14:30.833Z,17.27
2018-06-04T18:16:58.101Z,18.07
2018-06-04T18:19:25.389Z,18.53
2018-06-04T18:21:52.695Z,14.13
2018-06-04T18:24:20.006Z,15.17
2018-06-04T18:26:47.292Z,14.53
2018-06-04T18:29:14.576Z,14.03
2018-06-04T18:31:41.861Z,14.90
2018-06-04T18:34:09.141Z,15.53
2018-06-04T18:36:36.414Z,16.60
2018-06-04T18:39:05.117Z,18.30
2018-06-04T18:41:32.377Z,23.33
2018-06-04T18:43:59.664Z,17.37
2018-06-04T18:46:26.957Z,24.07
2018-06-04T18:48:54.253Z,32.30
2018-06-04T18:51:21.577Z,23.17
2018-06-04T18:53:48.845Z,24.03
2018-06-04T18:56:16.144Z,22.47
2018-06-04T18:58:43.417Z,26.73
2018-06-04T19:01:10.706Z,27.10
2018-06-04T19:03:37.991Z,27.87
2018-06-04T19:06:05.289Z,26.10
2018-06-04T19:08:32.571Z,27.17
2018-06-04T19:10:59.981Z,23.70
2018-06-04T19:13:27.257Z,29.47
2018-06-04T19:15:54.573Z,19.13
2018-06-04T19:18:21.841Z,27.43
2018-06-04T19:20:49.160Z,22.23
2018-06-04T19:23:16.405Z,25.57
2018-06-04T19:25:43.681Z,23.70
2018-06-04T19:28:10.985Z,26.93
2018-06-04T19:30:38.294Z,23.30
2018-06-04T19:33:05.829Z,29.77
2018-06-04T19:35:35.690Z,27.37
2018-06-04T19:38:04.137Z,24.60
2018-06-04T19:40:31.496Z,23.17
2018-06-04T19:42:58.780Z,27.93
2018-06-04T19:45:26.068Z,23.60
2018-06-04T19:47:53.333Z,40.47
2018-06-04T19:50:20.640Z,23.43
2018-06-04T19:52:47.938Z,26.57
2018-06-04T19:55:15.209Z,31.50
2018-06-04T19:57:42.564Z,23.77
2018-06-04T20:00:09.882Z,38.50
2018-06-04T20:02:37.149Z,27.70
2018-06-04T20:05:04.440Z,28.60
2018-06-04T20:07:31.728Z,26.40
2018-06-04T20:09:59.029Z,31.67
2018-06-04T20:12:26.550Z,33.93
2018-06-04T20:14:53.841Z,30.23
2018-06-04T20:17:21.116Z,31.27
2018-06-04T20:19:48.385Z,31.53
2018-06-04T20:22:15.685Z,29.17
2018-06-04T20:24:42.972Z,30.03
2018-06-04T20:27:10.249Z,34.23
2018-06-04T20:29:37.537Z,29.30
2018-06-04T20:32:04.817Z,36.43
2018-06-04T20:34:32.096Z,30.80
2018-06-04T20:36:59.377Z,29.27
2018-06-04T20:39:26.683Z,28.80
2018-06-04T20:41:53.962Z,36.43
2018-06-04T20:44:21.311Z,29.50
2018-06-04T20:46:48.588Z,28.10
2018-06-04T20:49:15.861Z,30.53
2018-06-04T20:51:43.181Z,33.37
2018-06-04T20:54:10.463Z,32.10
2018-06-04T20:56:37.779Z,27.07
2018-06-04T20:59:05.020Z,28.90
2018-06-04T21:01:32.272Z,27.73
2018-06-04T21:03:59.540Z,28.80
2018-06-04T21:06:26.809Z,34.07
2018-06-04T21:08:54.077Z,22.80
2018-06-04T21:11:21.340Z,29.43
2018-06-04T21:13:48.805Z,28.07
2018-06-04T21:16:16.077Z,27.40
2018-06-04T21:18:43.356Z,31.40
2018-06-04T21:21:10.720Z,30.47
2018-06-04T21:23:38.124Z,26.50
2018-06-04T21:26:05.394Z,28.53
2018-06-04T21:28:32.664Z,32.80
2018-06-04T21:30:59.978Z,30.47
2018-06-04T21:33:27.247Z,27.33
2018-06-04T21:35:54.559Z,23.37
2018-06-04T21:38:21.868Z,31.03
2018-06-04T21:40:49.148Z,30.03
2018-06-04T21:43:16.433Z,37.80
2018-06-04T21:45:43.726Z,34.40
2018-06-04T21:48:11.016Z,34.13
2018-06-04T21:50:38.277Z,32.13
2018-06-04T21:53:05.549Z,29.97
2018-06-04T21:55:32.841Z,34.87
2018-06-04T21:58:00.116Z,40.03
2018-06-04T22:00:27.379Z,36.07
2018-06-04T22:02:54.692Z,39.20
2018-06-04T22:05:21.963Z,34.70
2018-06-04T22:07:49.296Z,31.90
2018-06-04T22:10:16.559Z,36.80
2018-06-04T22:12:43.824Z,28.87
2018-06-04T22:15:11.316Z,37.23
2018-06-04T22:17:38.576Z,32.50
2018-06-04T22:20:05.865Z,25.80
2018-06-04T22:22:33.142Z,25.87
2018-06-04T22:25:00.417Z,38.57
2018-06-04T22:27:27.701Z,34.43
2018-06-04T22:29:54.977Z,33.13
2018-06-04T22:32:22.245Z,28.13
2018-06-04T22:34:49.513Z,31.07
2018-06-04T22:37:16.781Z,34.63
2018-06-04T22:39:44.037Z,38.83
2018-06-04T22:42:11.308Z,30.00
2018-06-04T22:44:39.513Z,32.23
2018-06-04T22:47:06.776Z,37.73
2018-06-04T22:49:34.033Z,38.57
2018-06-04T22:52:01.302Z,40.10
2018-06-04T22:54:28.565Z,36.10
2018-06-04T22:56:55.818Z,49.00
2018-06-04T22:59:23.080Z,43.10
2018-06-04T23:01:50.348Z,45.50
2018-06-04T23:04:17.652Z,45.43
2018-06-04T23:06:44.921Z,41.23
2018-06-04T23:09:12.213Z,40.73
2018-06-04T23:11:39.465Z,39.07
2018-06-04T23:14:06.733Z,35.03
2018-06-04T23:16:34.257Z,39.67
2018-06-04T23:19:01.529Z,34.93
2018-06-04T23:21:28.796Z,32.60
2018-06-04T23:23:56.052Z,31.97
2018-06-04T23:26:23.349Z,29.10
2018-06-04T23:28:50.610Z,41.63
2018-06-04T23:31:17.900Z,28.57
2018-06-04T23:33:45.168Z,28.47
2018-06-04T23:36:12.438Z,37.53
2018-06-04T23:38:40.009Z,30.67
2018-06-04T23:41:07.561Z,27.03
2018-06-04T23:43:34.879Z,29.57
2018-06-04T23:46:02.181Z,25.97
2018-06-04T23:48:29.462Z,31.10
2018-06-04T23:50:56.745Z,25.80
2018-06-04T23:53:24.009Z,24.07
2018-06-04T23:55:51.304Z,35.60
2018-06-04T23:58:18.556Z,26.33
